FWKI/LLW METAR and TAF weather

Enter ICAO airport designator
Station Type Date Time Source
FWKI METAR 2020/09/26 10:00 UTC NOAA

FWKI 261000Z 07010KT 9999 FEW035 30/07 Q1015 NOSIG


Station Type Date Time Source
FWKI Decoded METAR 2020/09/26 10:00 UTC NOAA

Lilongwe International Airport, Malawi (FWKI) 13-47S 033-46E 1229M
Sep 26, 2020 - 06:00 AM EDT / 2020.09.26 1000 UTC
Wind: from the ENE (070 degrees) at 12 MPH (10 KT):0
Visibility: greater than 7 mile(s):0
Sky conditions: mostly clear
Temperature: 86 F (30 C)
Dew Point: 44 F (7 C)
Relative Humidity: 23%
Pressure (altimeter): 29.97 in. Hg (1015 hPa)
ob: FWKI 261000Z 07010KT 9999 FEW035 30/07 Q1015 NOSIG
cycle: 10

Station Type Date Time Source
FWKI TAF 2020/09/26 06:15 UTC NOAA

TAF TAF FWKI 260410Z 2606/2712 06010KT 8000 NSC
BECMG 2608/2611 05010G20KT 9999 FEW032
FM261300 05012KT CAVOK

Example: see airport list